sensor_id;sensor_type;location;lat;lon;timestamp;P1;durP1;ratioP1;P2;durP2;ratioP2
72569;SDS011;60594;50.204;8.844;2023-02-01T00:00:52;5.65;;;3.05;;
72569;SDS011;60594;50.204;8.844;2023-02-01T00:03:26;4.65;;;2.55;;
72569;SDS011;60594;50.204;8.844;2023-02-01T00:05:56;5.60;;;3.03;;
72569;SDS011;60594;50.204;8.844;2023-02-01T00:08:24;7.68;;;2.47;;
72569;SDS011;60594;50.204;8.844;2023-02-01T00:11:03;6.03;;;2.47;;
72569;SDS011;60594;50.204;8.844;2023-02-01T00:13:32;4.32;;;1.90;;
72569;SDS011;60594;50.204;8.844;2023-02-01T00:18:30;5.75;;;2.38;;
72569;SDS011;60594;50.204;8.844;2023-02-01T00:20:57;9.00;;;3.10;;
72569;SDS011;60594;50.204;8.844;2023-02-01T00:23:23;6.68;;;2.80;;
72569;SDS011;60594;50.204;8.844;2023-02-01T00:25:50;5.90;;;2.90;;
72569;SDS011;60594;50.204;8.844;2023-02-01T00:28:16;5.22;;;2.80;;
72569;SDS011;60594;50.204;8.844;2023-02-01T00:30:43;5.28;;;2.80;;
72569;SDS011;60594;50.204;8.844;2023-02-01T00:33:10;4.85;;;2.75;;
72569;SDS011;60594;50.204;8.844;2023-02-01T00:35:36;6.07;;;2.63;;
72569;SDS011;60594;50.204;8.844;2023-02-01T00:38:03;5.53;;;2.63;;
72569;SDS011;60594;50.204;8.844;2023-02-01T00:40:29;7.10;;;2.75;;
72569;SDS011;60594;50.204;8.844;2023-02-01T00:42:56;4.60;;;2.60;;
72569;SDS011;60594;50.204;8.844;2023-02-01T00:45:24;6.30;;;2.83;;
72569;SDS011;60594;50.204;8.844;2023-02-01T00:47:50;5.43;;;2.55;;
72569;SDS011;60594;50.204;8.844;2023-02-01T00:50:17;8.35;;;3.00;;
72569;SDS011;60594;50.204;8.844;2023-02-01T00:52:43;7.15;;;3.10;;
72569;SDS011;60594;50.204;8.844;2023-02-01T00:55:10;5.75;;;2.75;;
72569;SDS011;60594;50.204;8.844;2023-02-01T00:57:36;5.55;;;3.00;;
72569;SDS011;60594;50.204;8.844;2023-02-01T01:00:03;5.85;;;3.05;;
72569;SDS011;60594;50.204;8.844;2023-02-01T01:02:30;6.85;;;3.10;;
72569;SDS011;60594;50.204;8.844;2023-02-01T01:04:56;6.53;;;2.70;;
72569;SDS011;60594;50.204;8.844;2023-02-01T01:07:22;6.00;;;2.90;;
72569;SDS011;60594;50.204;8.844;2023-02-01T01:09:49;6.88;;;3.50;;
72569;SDS011;60594;50.204;8.844;2023-02-01T01:12:16;6.07;;;2.90;;
72569;SDS011;60594;50.204;8.844;2023-02-01T01:14:42;5.22;;;2.83;;
72569;SDS011;60594;50.204;8.844;2023-02-01T01:17:08;5.30;;;2.92;;
72569;SDS011;60594;50.204;8.844;2023-02-01T01:19:35;5.10;;;2.53;;
72569;SDS011;60594;50.204;8.844;2023-02-01T01:22:02;7.18;;;3.38;;
72569;SDS011;60594;50.204;8.844;2023-02-01T01:24:28;5.97;;;2.53;;
72569;SDS011;60594;50.204;8.844;2023-02-01T01:26:55;4.85;;;2.30;;
72569;SDS011;60594;50.204;8.844;2023-02-01T01:29:21;5.68;;;2.97;;
72569;SDS011;60594;50.204;8.844;2023-02-01T01:31:48;5.60;;;2.53;;
72569;SDS011;60594;50.204;8.844;2023-02-01T01:34:14;5.30;;;2.53;;
72569;SDS011;60594;50.204;8.844;2023-02-01T01:36:40;7.18;;;3.47;;
72569;SDS011;60594;50.204;8.844;2023-02-01T01:39:07;4.57;;;2.13;;
72569;SDS011;60594;50.204;8.844;2023-02-01T01:41:33;5.85;;;2.83;;
72569;SDS011;60594;50.204;8.844;2023-02-01T01:47:19;7.18;;;3.83;;
72569;SDS011;60594;50.204;8.844;2023-02-01T01:49:45;5.35;;;2.95;;
72569;SDS011;60594;50.204;8.844;2023-02-01T01:52:12;5.75;;;3.00;;
72569;SDS011;60594;50.204;8.844;2023-02-01T01:54:44;7.38;;;3.72;;
72569;SDS011;60594;50.204;8.844;2023-02-01T01:57:16;8.63;;;3.50;;
72569;SDS011;60594;50.204;8.844;2023-02-01T01:59:48;6.95;;;2.80;;
72569;SDS011;60594;50.204;8.844;2023-02-01T02:02:20;6.55;;;3.25;;
72569;SDS011;60594;50.204;8.844;2023-02-01T02:04:47;7.85;;;3.65;;
72569;SDS011;60594;50.204;8.844;2023-02-01T02:07:16;8.77;;;3.75;;
72569;SDS011;60594;50.204;8.844;2023-02-01T02:09:46;7.63;;;3.80;;
72569;SDS011;60594;50.204;8.844;2023-02-01T02:12:12;7.38;;;3.22;;
72569;SDS011;60594;50.204;8.844;2023-02-01T02:14:39;6.80;;;3.78;;
72569;SDS011;60594;50.204;8.844;2023-02-01T02:23:03;7.47;;;3.88;;
72569;SDS011;60594;50.204;8.844;2023-02-01T02:26:36;6.43;;;3.20;;
72569;SDS011;60594;50.204;8.844;2023-02-01T02:31:51;7.03;;;3.70;;
72569;SDS011;60594;50.204;8.844;2023-02-01T02:40:07;6.25;;;3.47;;
72569;SDS011;60594;50.204;8.844;2023-02-01T02:42:58;7.60;;;3.30;;
72569;SDS011;60594;50.204;8.844;2023-02-01T02:45:52;10.38;;;3.70;;
72569;SDS011;60594;50.204;8.844;2023-02-01T02:49:19;6.82;;;3.15;;
72569;SDS011;60594;50.204;8.844;2023-02-01T02:51:49;8.20;;;4.57;;
72569;SDS011;60594;50.204;8.844;2023-02-01T02:54:41;8.82;;;4.47;;
72569;SDS011;60594;50.204;8.844;2023-02-01T02:57:14;8.73;;;4.50;;
72569;SDS011;60594;50.204;8.844;2023-02-01T03:00:09;7.75;;;4.00;;
72569;SDS011;60594;50.204;8.844;2023-02-01T03:02:57;8.10;;;3.33;;
72569;SDS011;60594;50.204;8.844;2023-02-01T03:05:46;8.40;;;3.55;;
72569;SDS011;60594;50.204;8.844;2023-02-01T03:08:26;10.18;;;4.25;;
72569;SDS011;60594;50.204;8.844;2023-02-01T03:11:05;9.48;;;3.92;;
72569;SDS011;60594;50.204;8.844;2023-02-01T03:16:26;8.38;;;3.88;;
72569;SDS011;60594;50.204;8.844;2023-02-01T03:21:55;7.60;;;4.25;;
72569;SDS011;60594;50.204;8.844;2023-02-01T03:24:28;9.10;;;4.72;;
72569;SDS011;60594;50.204;8.844;2023-02-01T03:27:20;7.55;;;3.85;;
72569;SDS011;60594;50.204;8.844;2023-02-01T03:29:54;7.93;;;3.50;;
72569;SDS011;60594;50.204;8.844;2023-02-01T03:32:26;6.80;;;3.60;;
72569;SDS011;60594;50.204;8.844;2023-02-01T03:34:52;11.57;;;4.35;;
72569;SDS011;60594;50.204;8.844;2023-02-01T03:37:22;11.90;;;4.07;;
72569;SDS011;60594;50.204;8.844;2023-02-01T03:39:59;9.77;;;4.13;;
72569;SDS011;60594;50.204;8.844;2023-02-01T03:42:34;7.07;;;3.40;;
72569;SDS011;60594;50.204;8.844;2023-02-01T03:45:07;10.07;;;4.03;;
72569;SDS011;60594;50.204;8.844;2023-02-01T03:47:40;7.28;;;3.42;;
72569;SDS011;60594;50.204;8.844;2023-02-01T03:50:12;8.35;;;3.92;;
72569;SDS011;60594;50.204;8.844;2023-02-01T03:52:43;7.60;;;3.40;;
72569;SDS011;60594;50.204;8.844;2023-02-01T03:55:15;7.13;;;3.58;;
72569;SDS011;60594;50.204;8.844;2023-02-01T03:57:45;7.28;;;3.72;;
72569;SDS011;60594;50.204;8.844;2023-02-01T04:02:50;6.53;;;3.33;;
72569;SDS011;60594;50.204;8.844;2023-02-01T04:05:18;7.47;;;3.53;;
72569;SDS011;60594;50.204;8.844;2023-02-01T04:07:55;7.07;;;3.30;;
72569;SDS011;60594;50.204;8.844;2023-02-01T04:10:22;7.15;;;3.53;;
72569;SDS011;60594;50.204;8.844;2023-02-01T04:12:49;6.30;;;3.05;;
72569;SDS011;60594;50.204;8.844;2023-02-01T04:15:15;6.88;;;2.70;;
72569;SDS011;60594;50.204;8.844;2023-02-01T04:17:42;5.55;;;2.60;;
72569;SDS011;60594;50.204;8.844;2023-02-01T04:20:09;7.22;;;2.85;;
72569;SDS011;60594;50.204;8.844;2023-02-01T04:22:36;5.88;;;3.33;;
72569;SDS011;60594;50.204;8.844;2023-02-01T04:25:03;5.97;;;2.63;;
72569;SDS011;60594;50.204;8.844;2023-02-01T04:27:31;6.13;;;2.80;;
72569;SDS011;60594;50.204;8.844;2023-02-01T04:29:58;6.55;;;2.53;;
72569;SDS011;60594;50.204;8.844;2023-02-01T04:32:24;7.80;;;3.05;;
72569;SDS011;60594;50.204;8.844;2023-02-01T04:34:51;6.15;;;3.00;;
72569;SDS011;60594;50.204;8.844;2023-02-01T04:37:17;6.82;;;2.72;;
72569;SDS011;60594;50.204;8.844;2023-02-01T04:39:44;5.68;;;2.75;;
72569;SDS011;60594;50.204;8.844;2023-02-01T04:42:10;7.00;;;2.95;;
72569;SDS011;60594;50.204;8.844;2023-02-01T04:44:37;6.72;;;3.13;;
72569;SDS011;60594;50.204;8.844;2023-02-01T04:47:05;6.18;;;2.75;;
72569;SDS011;60594;50.204;8.844;2023-02-01T04:49:32;6.55;;;2.85;;
72569;SDS011;60594;50.204;8.844;2023-02-01T04:51:58;7.47;;;2.60;;
72569;SDS011;60594;50.204;8.844;2023-02-01T04:54:25;5.60;;;2.97;;
72569;SDS011;60594;50.204;8.844;2023-02-01T04:56:51;8.40;;;2.88;;
72569;SDS011;60594;50.204;8.844;2023-02-01T04:59:17;5.85;;;2.72;;
72569;SDS011;60594;50.204;8.844;2023-02-01T05:01:44;7.60;;;2.80;;
72569;SDS011;60594;50.204;8.844;2023-02-01T05:04:10;5.78;;;2.75;;
72569;SDS011;60594;50.204;8.844;2023-02-01T05:06:37;5.13;;;2.30;;
72569;SDS011;60594;50.204;8.844;2023-02-01T05:09:04;5.55;;;2.90;;
72569;SDS011;60594;50.204;8.844;2023-02-01T05:11:30;6.03;;;2.10;;
72569;SDS011;60594;50.204;8.844;2023-02-01T05:14:15;8.13;;;2.97;;
72569;SDS011;60594;50.204;8.844;2023-02-01T05:16:42;8.07;;;2.78;;
72569;SDS011;60594;50.204;8.844;2023-02-01T05:19:08;8.23;;;2.70;;
72569;SDS011;60594;50.204;8.844;2023-02-01T05:21:35;6.68;;;2.80;;
72569;SDS011;60594;50.204;8.844;2023-02-01T05:24:01;5.45;;;2.92;;
72569;SDS011;60594;50.204;8.844;2023-02-01T05:26:40;6.07;;;2.90;;
72569;SDS011;60594;50.204;8.844;2023-02-01T05:29:07;8.27;;;3.47;;
72569;SDS011;60594;50.204;8.844;2023-02-01T05:31:34;5.88;;;2.63;;
72569;SDS011;60594;50.204;8.844;2023-02-01T05:34:01;9.45;;;2.92;;
72569;SDS011;60594;50.204;8.844;2023-02-01T05:36:28;6.47;;;3.30;;
72569;SDS011;60594;50.204;8.844;2023-02-01T05:38:54;5.70;;;2.88;;
72569;SDS011;60594;50.204;8.844;2023-02-01T05:41:21;8.82;;;3.10;;
72569;SDS011;60594;50.204;8.844;2023-02-01T05:43:47;5.82;;;2.95;;
72569;SDS011;60594;50.204;8.844;2023-02-01T05:46:14;6.82;;;3.10;;
72569;SDS011;60594;50.204;8.844;2023-02-01T05:48:41;7.13;;;2.38;;
72569;SDS011;60594;50.204;8.844;2023-02-01T05:51:08;6.75;;;2.85;;
72569;SDS011;60594;50.204;8.844;2023-02-01T05:53:35;7.60;;;2.45;;
72569;SDS011;60594;50.204;8.844;2023-02-01T05:56:02;5.45;;;3.40;;
72569;SDS011;60594;50.204;8.844;2023-02-01T05:58:29;7.07;;;2.53;;
72569;SDS011;60594;50.204;8.844;2023-02-01T06:00:58;8.52;;;3.03;;
72569;SDS011;60594;50.204;8.844;2023-02-01T06:03:26;7.85;;;3.40;;
72569;SDS011;60594;50.204;8.844;2023-02-01T06:05:53;7.10;;;2.78;;
72569;SDS011;60594;50.204;8.844;2023-02-01T06:08:20;6.50;;;3.05;;
72569;SDS011;60594;50.204;8.844;2023-02-01T06:10:46;7.72;;;2.65;;
72569;SDS011;60594;50.204;8.844;2023-02-01T06:13:13;9.50;;;2.97;;
72569;SDS011;60594;50.204;8.844;2023-02-01T06:15:40;6.72;;;2.88;;
72569;SDS011;60594;50.204;8.844;2023-02-01T06:18:08;7.47;;;2.60;;
72569;SDS011;60594;50.204;8.844;2023-02-01T06:20:35;9.98;;;3.38;;
72569;SDS011;60594;50.204;8.844;2023-02-01T06:23:01;7.45;;;2.67;;
72569;SDS011;60594;50.204;8.844;2023-02-01T06:25:28;7.95;;;2.45;;
72569;SDS011;60594;50.204;8.844;2023-02-01T06:27:54;9.93;;;3.35;;
72569;SDS011;60594;50.204;8.844;2023-02-01T06:30:21;6.93;;;2.28;;
72569;SDS011;60594;50.204;8.844;2023-02-01T06:32:50;7.43;;;2.08;;
72569;SDS011;60594;50.204;8.844;2023-02-01T06:35:19;7.47;;;2.10;;
72569;SDS011;60594;50.204;8.844;2023-02-01T06:37:46;6.90;;;2.47;;
72569;SDS011;60594;50.204;8.844;2023-02-01T06:40:13;6.57;;;2.55;;
72569;SDS011;60594;50.204;8.844;2023-02-01T06:42:39;7.78;;;2.03;;
72569;SDS011;60594;50.204;8.844;2023-02-01T06:45:06;6.25;;;1.90;;
72569;SDS011;60594;50.204;8.844;2023-02-01T06:47:33;6.57;;;2.30;;
72569;SDS011;60594;50.204;8.844;2023-02-01T06:49:59;6.15;;;1.83;;
72569;SDS011;60594;50.204;8.844;2023-02-01T06:52:26;7.95;;;2.38;;
72569;SDS011;60594;50.204;8.844;2023-02-01T06:54:52;4.47;;;2.20;;
72569;SDS011;60594;50.204;8.844;2023-02-01T06:57:19;5.68;;;2.10;;
72569;SDS011;60594;50.204;8.844;2023-02-01T06:59:45;8.82;;;2.78;;
72569;SDS011;60594;50.204;8.844;2023-02-01T07:02:12;6.82;;;2.50;;
72569;SDS011;60594;50.204;8.844;2023-02-01T07:04:38;7.13;;;2.22;;
72569;SDS011;60594;50.204;8.844;2023-02-01T07:07:04;7.47;;;1.98;;
72569;SDS011;60594;50.204;8.844;2023-02-01T07:09:31;5.25;;;2.42;;
72569;SDS011;60594;50.204;8.844;2023-02-01T07:11:57;9.05;;;2.17;;
72569;SDS011;60594;50.204;8.844;2023-02-01T07:14:24;4.47;;;1.98;;
72569;SDS011;60594;50.204;8.844;2023-02-01T07:16:50;8.77;;;2.70;;
72569;SDS011;60594;50.204;8.844;2023-02-01T07:19:17;7.10;;;2.10;;
72569;SDS011;60594;50.204;8.844;2023-02-01T07:21:43;5.90;;;1.98;;
72569;SDS011;60594;50.204;8.844;2023-02-01T07:24:10;8.32;;;2.60;;
72569;SDS011;60594;50.204;8.844;2023-02-01T07:26:36;11.10;;;3.05;;
72569;SDS011;60594;50.204;8.844;2023-02-01T07:29:03;6.28;;;2.50;;
72569;SDS011;60594;50.204;8.844;2023-02-01T07:31:29;6.20;;;1.65;;
72569;SDS011;60594;50.204;8.844;2023-02-01T07:33:56;4.47;;;1.75;;
72569;SDS011;60594;50.204;8.844;2023-02-01T07:36:23;9.73;;;2.95;;
72569;SDS011;60594;50.204;8.844;2023-02-01T07:38:50;7.90;;;2.40;;
72569;SDS011;60594;50.204;8.844;2023-02-01T07:41:18;6.25;;;2.38;;
72569;SDS011;60594;50.204;8.844;2023-02-01T07:43:44;6.88;;;1.85;;
72569;SDS011;60594;50.204;8.844;2023-02-01T07:46:11;10.15;;;2.83;;
72569;SDS011;60594;50.204;8.844;2023-02-01T07:48:38;8.63;;;2.63;;
72569;SDS011;60594;50.204;8.844;2023-02-01T07:51:06;5.90;;;2.50;;
72569;SDS011;60594;50.204;8.844;2023-02-01T07:53:41;4.75;;;2.70;;
72569;SDS011;60594;50.204;8.844;2023-02-01T07:56:12;11.98;;;2.15;;
72569;SDS011;60594;50.204;8.844;2023-02-01T07:58:51;7.55;;;3.03;;
72569;SDS011;60594;50.204;8.844;2023-02-01T08:01:21;8.02;;;2.10;;
72569;SDS011;60594;50.204;8.844;2023-02-01T08:03:51;6.32;;;1.90;;
72569;SDS011;60594;50.204;8.844;2023-02-01T08:06:22;4.43;;;1.85;;
72569;SDS011;60594;50.204;8.844;2023-02-01T08:08:51;6.72;;;1.98;;
72569;SDS011;60594;50.204;8.844;2023-02-01T08:11:18;8.50;;;2.15;;
72569;SDS011;60594;50.204;8.844;2023-02-01T08:13:46;3.47;;;1.52;;
72569;SDS011;60594;50.204;8.844;2023-02-01T08:16:13;10.82;;;2.72;;
72569;SDS011;60594;50.204;8.844;2023-02-01T08:18:42;8.40;;;2.45;;
72569;SDS011;60594;50.204;8.844;2023-02-01T08:21:42;7.43;;;1.95;;
72569;SDS011;60594;50.204;8.844;2023-02-01T08:24:05;4.90;;;1.70;;
72569;SDS011;60594;50.204;8.844;2023-02-01T08:26:32;8.88;;;1.67;;
72569;SDS011;60594;50.204;8.844;2023-02-01T08:28:59;6.70;;;2.03;;
72569;SDS011;60594;50.204;8.844;2023-02-01T08:31:27;9.18;;;2.38;;
72569;SDS011;60594;50.204;8.844;2023-02-01T08:33:55;4.40;;;1.83;;
72569;SDS011;60594;50.204;8.844;2023-02-01T08:36:24;7.97;;;1.80;;
72569;SDS011;60594;50.204;8.844;2023-02-01T08:38:53;5.82;;;1.83;;
72569;SDS011;60594;50.204;8.844;2023-02-01T08:41:21;5.10;;;1.98;;
72569;SDS011;60594;50.204;8.844;2023-02-01T08:43:49;4.45;;;1.52;;
72569;SDS011;60594;50.204;8.844;2023-02-01T08:46:16;7.50;;;1.98;;
72569;SDS011;60594;50.204;8.844;2023-02-01T08:48:44;6.00;;;2.15;;
72569;SDS011;60594;50.204;8.844;2023-02-01T08:51:12;7.40;;;2.13;;
72569;SDS011;60594;50.204;8.844;2023-02-01T08:53:41;7.10;;;2.92;;
72569;SDS011;60594;50.204;8.844;2023-02-01T08:56:08;4.72;;;1.83;;
72569;SDS011;60594;50.204;8.844;2023-02-01T08:58:35;9.35;;;2.42;;
72569;SDS011;60594;50.204;8.844;2023-02-01T09:01:03;8.77;;;1.90;;
72569;SDS011;60594;50.204;8.844;2023-02-01T09:03:31;7.68;;;1.92;;
72569;SDS011;60594;50.204;8.844;2023-02-01T09:06:02;7.22;;;1.98;;
72569;SDS011;60594;50.204;8.844;2023-02-01T09:08:29;6.80;;;1.83;;
72569;SDS011;60594;50.204;8.844;2023-02-01T09:11:00;7.22;;;2.72;;
72569;SDS011;60594;50.204;8.844;2023-02-01T09:13:31;7.35;;;2.10;;
72569;SDS011;60594;50.204;8.844;2023-02-01T09:15:57;5.40;;;1.50;;
72569;SDS011;60594;50.204;8.844;2023-02-01T09:18:26;10.85;;;2.78;;
72569;SDS011;60594;50.204;8.844;2023-02-01T09:20:52;8.77;;;2.30;;
72569;SDS011;60594;50.204;8.844;2023-02-01T09:23:19;8.40;;;2.17;;
72569;SDS011;60594;50.204;8.844;2023-02-01T09:25:46;7.13;;;1.85;;
72569;SDS011;60594;50.204;8.844;2023-02-01T09:28:16;5.28;;;1.55;;
72569;SDS011;60594;50.204;8.844;2023-02-01T09:30:43;5.53;;;1.50;;
72569;SDS011;60594;50.204;8.844;2023-02-01T09:33:10;8.23;;;2.45;;
72569;SDS011;60594;50.204;8.844;2023-02-01T09:35:36;5.07;;;2.17;;
72569;SDS011;60594;50.204;8.844;2023-02-01T09:38:04;5.68;;;2.20;;
72569;SDS011;60594;50.204;8.844;2023-02-01T09:40:30;6.50;;;1.98;;
72569;SDS011;60594;50.204;8.844;2023-02-01T09:43:07;4.60;;;1.92;;
72569;SDS011;60594;50.204;8.844;2023-02-01T09:45:40;6.47;;;1.30;;
72569;SDS011;60594;50.204;8.844;2023-02-01T09:48:19;5.25;;;1.60;;
72569;SDS011;60594;50.204;8.844;2023-02-01T09:50:52;9.65;;;2.17;;
72569;SDS011;60594;50.204;8.844;2023-02-01T09:53:35;6.03;;;1.80;;
72569;SDS011;60594;50.204;8.844;2023-02-01T09:56:15;7.38;;;2.10;;
72569;SDS011;60594;50.204;8.844;2023-02-01T09:58:48;8.35;;;2.03;;
72569;SDS011;60594;50.204;8.844;2023-02-01T10:01:37;5.47;;;1.70;;
72569;SDS011;60594;50.204;8.844;2023-02-01T10:04:07;4.40;;;1.63;;
72569;SDS011;60594;50.204;8.844;2023-02-01T10:15:26;6.25;;;1.90;;
72569;SDS011;60594;50.204;8.844;2023-02-01T10:23:56;3.40;;;1.35;;
72569;SDS011;60594;50.204;8.844;2023-02-01T10:26:49;4.00;;;1.60;;
72569;SDS011;60594;50.204;8.844;2023-02-01T10:29:24;7.38;;;1.63;;
72569;SDS011;60594;50.204;8.844;2023-02-01T10:31:57;5.63;;;1.48;;
72569;SDS011;60594;50.204;8.844;2023-02-01T10:34:28;8.40;;;2.10;;
72569;SDS011;60594;50.204;8.844;2023-02-01T10:37:02;5.30;;;1.65;;
72569;SDS011;60594;50.204;8.844;2023-02-01T10:39:39;6.25;;;1.63;;
72569;SDS011;60594;50.204;8.844;2023-02-01T10:42:07;4.40;;;1.55;;
72569;SDS011;60594;50.204;8.844;2023-02-01T10:44:41;4.78;;;1.50;;
72569;SDS011;60594;50.204;8.844;2023-02-01T10:47:11;7.22;;;1.73;;
72569;SDS011;60594;50.204;8.844;2023-02-01T10:49:38;6.10;;;2.10;;
72569;SDS011;60594;50.204;8.844;2023-02-01T10:54:51;5.10;;;1.42;;
72569;SDS011;60594;50.204;8.844;2023-02-01T10:57:23;6.43;;;1.80;;
72569;SDS011;60594;50.204;8.844;2023-02-01T10:59:55;4.28;;;1.60;;
72569;SDS011;60594;50.204;8.844;2023-02-01T11:02:26;6.75;;;1.50;;
72569;SDS011;60594;50.204;8.844;2023-02-01T11:05:00;4.47;;;1.88;;
72569;SDS011;60594;50.204;8.844;2023-02-01T11:07:29;6.55;;;1.98;;
72569;SDS011;60594;50.204;8.844;2023-02-01T11:09:56;6.68;;;2.28;;
72569;SDS011;60594;50.204;8.844;2023-02-01T11:12:35;3.15;;;1.30;;
72569;SDS011;60594;50.204;8.844;2023-02-01T11:17:47;7.30;;;2.15;;
72569;SDS011;60594;50.204;8.844;2023-02-01T11:20:19;5.07;;;2.10;;
72569;SDS011;60594;50.204;8.844;2023-02-01T11:22:58;10.93;;;2.63;;
72569;SDS011;60594;50.204;8.844;2023-02-01T11:25:25;6.68;;;1.73;;
72569;SDS011;60594;50.204;8.844;2023-02-01T11:27:53;4.93;;;1.40;;
72569;SDS011;60594;50.204;8.844;2023-02-01T11:30:24;5.07;;;1.88;;
72569;SDS011;60594;50.204;8.844;2023-02-01T11:33:00;6.95;;;1.52;;
72569;SDS011;60594;50.204;8.844;2023-02-01T11:37:57;6.07;;;2.78;;
72569;SDS011;60594;50.204;8.844;2023-02-01T11:40:26;5.82;;;1.98;;
72569;SDS011;60594;50.204;8.844;2023-02-01T11:43:22;7.55;;;1.88;;
72569;SDS011;60594;50.204;8.844;2023-02-01T11:45:55;3.92;;;1.50;;
72569;SDS011;60594;50.204;8.844;2023-02-01T11:48:30;6.30;;;1.83;;
72569;SDS011;60594;50.204;8.844;2023-02-01T11:59:27;5.40;;;1.83;;
72569;SDS011;60594;50.204;8.844;2023-02-01T12:02:20;5.03;;;1.40;;
72569;SDS011;60594;50.204;8.844;2023-02-01T12:16:51;3.80;;;1.40;;
72569;SDS011;60594;50.204;8.844;2023-02-01T12:25:17;3.03;;;1.20;;
72569;SDS011;60594;50.204;8.844;2023-02-01T12:27:49;9.20;;;1.95;;
72569;SDS011;60594;50.204;8.844;2023-02-01T12:30:39;8.68;;;1.98;;
72569;SDS011;60594;50.204;8.844;2023-02-01T12:42:03;7.07;;;1.50;;
72569;SDS011;60594;50.204;8.844;2023-02-01T12:47:24;5.20;;;1.25;;
72569;SDS011;60594;50.204;8.844;2023-02-01T12:55:23;12.45;;;1.90;;
72569;SDS011;60594;50.204;8.844;2023-02-01T12:58:06;4.22;;;1.35;;
72569;SDS011;60594;50.204;8.844;2023-02-01T13:00:42;7.28;;;1.90;;
72569;SDS011;60594;50.204;8.844;2023-02-01T13:03:15;8.63;;;2.78;;
72569;SDS011;60594;50.204;8.844;2023-02-01T13:05:58;8.98;;;1.95;;
72569;SDS011;60594;50.204;8.844;2023-02-01T13:08:36;5.97;;;1.73;;
72569;SDS011;60594;50.204;8.844;2023-02-01T13:11:13;6.47;;;1.70;;
72569;SDS011;60594;50.204;8.844;2023-02-01T13:13:46;7.03;;;2.25;;
72569;SDS011;60594;50.204;8.844;2023-02-01T13:16:42;7.20;;;2.20;;
72569;SDS011;60594;50.204;8.844;2023-02-01T13:22:10;7.78;;;2.33;;
72569;SDS011;60594;50.204;8.844;2023-02-01T13:24:50;6.85;;;1.83;;
72569;SDS011;60594;50.204;8.844;2023-02-01T13:27:19;8.23;;;2.03;;
72569;SDS011;60594;50.204;8.844;2023-02-01T13:29:54;4.60;;;1.20;;
72569;SDS011;60594;50.204;8.844;2023-02-01T13:43:58;5.18;;;1.60;;
72569;SDS011;60594;50.204;8.844;2023-02-01T13:46:27;6.07;;;1.38;;
72569;SDS011;60594;50.204;8.844;2023-02-01T13:48:55;6.15;;;1.65;;
72569;SDS011;60594;50.204;8.844;2023-02-01T13:54:23;5.25;;;1.40;;
72569;SDS011;60594;50.204;8.844;2023-02-01T13:56:55;5.25;;;1.30;;
72569;SDS011;60594;50.204;8.844;2023-02-01T14:05:07;6.03;;;1.77;;
72569;SDS011;60594;50.204;8.844;2023-02-01T14:34:17;3.65;;;1.80;;
72569;SDS011;60594;50.204;8.844;2023-02-01T14:36:52;3.78;;;1.30;;
72569;SDS011;60594;50.204;8.844;2023-02-01T14:39:28;6.32;;;1.50;;
72569;SDS011;60594;50.204;8.844;2023-02-01T14:42:42;5.72;;;1.85;;
72569;SDS011;60594;50.204;8.844;2023-02-01T14:44:53;6.47;;;1.50;;
72569;SDS011;60594;50.204;8.844;2023-02-01T14:52:37;6.32;;;1.73;;
72569;SDS011;60594;50.204;8.844;2023-02-01T14:57:39;4.80;;;1.42;;
72569;SDS011;60594;50.204;8.844;2023-02-01T15:00:14;8.60;;;1.52;;
72569;SDS011;60594;50.204;8.844;2023-02-01T15:02:45;4.13;;;1.60;;
72569;SDS011;60594;50.204;8.844;2023-02-01T15:05:22;6.20;;;1.52;;
72569;SDS011;60594;50.204;8.844;2023-02-01T15:07:57;5.95;;;1.63;;
72569;SDS011;60594;50.204;8.844;2023-02-01T15:10:30;5.53;;;1.30;;
72569;SDS011;60594;50.204;8.844;2023-02-01T15:13:05;6.60;;;2.10;;
72569;SDS011;60594;50.204;8.844;2023-02-01T15:15:31;8.05;;;1.55;;
72569;SDS011;60594;50.204;8.844;2023-02-01T15:18:02;6.18;;;1.30;;
72569;SDS011;60594;50.204;8.844;2023-02-01T15:20:31;5.13;;;1.67;;
72569;SDS011;60594;50.204;8.844;2023-02-01T15:23:05;5.88;;;1.42;;
72569;SDS011;60594;50.204;8.844;2023-02-01T15:25:44;2.55;;;1.17;;
72569;SDS011;60594;50.204;8.844;2023-02-01T15:28:13;3.22;;;1.10;;
72569;SDS011;60594;50.204;8.844;2023-02-01T15:30:58;3.55;;;1.70;;
72569;SDS011;60594;50.204;8.844;2023-02-01T15:33:30;4.68;;;1.45;;
72569;SDS011;60594;50.204;8.844;2023-02-01T15:38:37;5.88;;;1.42;;
72569;SDS011;60594;50.204;8.844;2023-02-01T15:41:07;8.95;;;2.58;;
72569;SDS011;60594;50.204;8.844;2023-02-01T15:44:17;5.57;;;1.50;;
72569;SDS011;60594;50.204;8.844;2023-02-01T15:46:35;6.22;;;1.35;;
72569;SDS011;60594;50.204;8.844;2023-02-01T15:49:11;3.60;;;1.08;;
72569;SDS011;60594;50.204;8.844;2023-02-01T15:52:03;6.70;;;1.17;;
72569;SDS011;60594;50.204;8.844;2023-02-01T15:54:45;5.10;;;1.27;;
72569;SDS011;60594;50.204;8.844;2023-02-01T15:57:19;7.80;;;1.13;;
72569;SDS011;60594;50.204;8.844;2023-02-01T15:59:58;6.45;;;1.50;;
72569;SDS011;60594;50.204;8.844;2023-02-01T16:02:42;5.68;;;2.20;;
72569;SDS011;60594;50.204;8.844;2023-02-01T16:05:32;7.18;;;1.58;;
72569;SDS011;60594;50.204;8.844;2023-02-01T16:08:13;4.38;;;1.45;;
72569;SDS011;60594;50.204;8.844;2023-02-01T16:10:43;4.40;;;1.30;;
72569;SDS011;60594;50.204;8.844;2023-02-01T16:13:12;3.95;;;1.73;;
72569;SDS011;60594;50.204;8.844;2023-02-01T16:18:07;5.13;;;1.70;;
72569;SDS011;60594;50.204;8.844;2023-02-01T16:20:39;8.02;;;1.65;;
72569;SDS011;60594;50.204;8.844;2023-02-01T16:23:07;7.57;;;1.42;;
72569;SDS011;60594;50.204;8.844;2023-02-01T16:25:36;7.07;;;1.60;;
72569;SDS011;60594;50.204;8.844;2023-02-01T16:28:03;5.40;;;1.65;;
72569;SDS011;60594;50.204;8.844;2023-02-01T16:30:32;4.50;;;1.23;;
72569;SDS011;60594;50.204;8.844;2023-02-01T16:32:59;4.22;;;0.90;;
72569;SDS011;60594;50.204;8.844;2023-02-01T16:35:32;5.22;;;1.35;;
72569;SDS011;60594;50.204;8.844;2023-02-01T16:38:04;7.70;;;2.28;;
72569;SDS011;60594;50.204;8.844;2023-02-01T16:40:42;6.60;;;1.67;;
72569;SDS011;60594;50.204;8.844;2023-02-01T16:45:41;3.60;;;1.50;;
72569;SDS011;60594;50.204;8.844;2023-02-01T16:48:11;6.50;;;1.58;;
72569;SDS011;60594;50.204;8.844;2023-02-01T16:50:54;6.38;;;1.48;;
72569;SDS011;60594;50.204;8.844;2023-02-01T16:53:23;7.50;;;1.65;;
72569;SDS011;60594;50.204;8.844;2023-02-01T16:55:51;5.85;;;1.95;;
72569;SDS011;60594;50.204;8.844;2023-02-01T16:58:19;4.63;;;1.65;;
72569;SDS011;60594;50.204;8.844;2023-02-01T17:03:14;4.53;;;1.13;;
72569;SDS011;60594;50.204;8.844;2023-02-01T17:05:48;6.35;;;1.58;;
72569;SDS011;60594;50.204;8.844;2023-02-01T17:08:19;5.22;;;1.55;;
72569;SDS011;60594;50.204;8.844;2023-02-01T17:10:54;5.63;;;1.80;;
72569;SDS011;60594;50.204;8.844;2023-02-01T17:13:20;13.98;;;2.05;;
72569;SDS011;60594;50.204;8.844;2023-02-01T17:15:54;3.15;;;1.30;;
72569;SDS011;60594;50.204;8.844;2023-02-01T17:18:24;6.10;;;1.65;;
72569;SDS011;60594;50.204;8.844;2023-02-01T17:20:57;7.20;;;1.45;;
72569;SDS011;60594;50.204;8.844;2023-02-01T17:23:24;8.05;;;2.10;;
72569;SDS011;60594;50.204;8.844;2023-02-01T17:28:21;7.15;;;2.28;;
72569;SDS011;60594;50.204;8.844;2023-02-01T17:30:49;6.22;;;1.33;;
72569;SDS011;60594;50.204;8.844;2023-02-01T17:33:29;4.13;;;2.35;;
72569;SDS011;60594;50.204;8.844;2023-02-01T17:36:01;5.55;;;1.15;;
72569;SDS011;60594;50.204;8.844;2023-02-01T17:38:29;4.53;;;1.48;;
72569;SDS011;60594;50.204;8.844;2023-02-01T17:40:58;4.80;;;1.30;;
72569;SDS011;60594;50.204;8.844;2023-02-01T17:43:25;5.55;;;1.10;;
72569;SDS011;60594;50.204;8.844;2023-02-01T17:46:10;7.53;;;1.95;;
72569;SDS011;60594;50.204;8.844;2023-02-01T17:48:39;3.85;;;1.35;;
72569;SDS011;60594;50.204;8.844;2023-02-01T17:51:16;5.95;;;1.52;;
72569;SDS011;60594;50.204;8.844;2023-02-01T17:53:47;6.38;;;1.70;;
72569;SDS011;60594;50.204;8.844;2023-02-01T17:56:18;4.13;;;1.20;;